Altamira, Altamira Airport (SBHT)

NameAltamira Airport
CityAltamira
CountryBrazil
ICAOSBHT
IATAATM
Altitude112 m
CoordinatesGoogle Map
Live Air TrafficLiveATC.net
METARSBHT 251700Z 09003KT 9999 SCT030 SCT100 32/25 Q1012
2020-04-25 17:00:00 Wind: East (90°) 1.54 m/s - Visibility: > 10000 m - Temperature: 32 °C - Dew point: 25 °C - Humidity: 66.5% - Pressure: 1012 hPa

Sorry, no flights used the airport in this database.